sensor_id;sensor_type;location;lat;lon;timestamp;temperature;humidity
1379;DHT22;683;48.738;9.226;2022-08-19T00:00:43;20.00;97.70
1379;DHT22;683;48.738;9.226;2022-08-19T00:03:11;20.00;97.70
1379;DHT22;683;48.738;9.226;2022-08-19T00:05:40;20.00;97.80
1379;DHT22;683;48.738;9.226;2022-08-19T00:08:11;20.00;98.00
1379;DHT22;683;48.738;9.226;2022-08-19T00:10:39;20.00;97.80
1379;DHT22;683;48.738;9.226;2022-08-19T00:13:06;19.90;98.00
1379;DHT22;683;48.738;9.226;2022-08-19T00:15:34;19.90;98.60
1379;DHT22;683;48.738;9.226;2022-08-19T00:18:02;19.90;98.30
1379;DHT22;683;48.738;9.226;2022-08-19T00:20:30;20.00;98.20
1379;DHT22;683;48.738;9.226;2022-08-19T00:22:58;19.90;98.20
1379;DHT22;683;48.738;9.226;2022-08-19T00:25:27;19.90;98.40
1379;DHT22;683;48.738;9.226;2022-08-19T00:27:56;19.90;98.70
1379;DHT22;683;48.738;9.226;2022-08-19T00:30:25;19.90;98.50
1379;DHT22;683;48.738;9.226;2022-08-19T00:32:54;19.90;98.70
1379;DHT22;683;48.738;9.226;2022-08-19T00:35:22;19.90;98.90
1379;DHT22;683;48.738;9.226;2022-08-19T00:37:54;19.90;99.10
1379;DHT22;683;48.738;9.226;2022-08-19T00:40:22;19.80;99.40
1379;DHT22;683;48.738;9.226;2022-08-19T00:42:52;19.80;99.90
1379;DHT22;683;48.738;9.226;2022-08-19T00:45:23;19.70;99.90
1379;DHT22;683;48.738;9.226;2022-08-19T00:47:51;19.70;99.90
1379;DHT22;683;48.738;9.226;2022-08-19T00:50:21;19.70;99.90
1379;DHT22;683;48.738;9.226;2022-08-19T00:52:50;19.60;99.90
1379;DHT22;683;48.738;9.226;2022-08-19T00:55:20;19.60;99.90
1379;DHT22;683;48.738;9.226;2022-08-19T00:57:54;19.50;99.90
1379;DHT22;683;48.738;9.226;2022-08-19T01:00:24;19.50;99.90
1379;DHT22;683;48.738;9.226;2022-08-19T01:02:52;19.40;99.90
1379;DHT22;683;48.738;9.226;2022-08-19T01:05:23;19.50;99.90
1379;DHT22;683;48.738;9.226;2022-08-19T01:07:54;19.50;99.90
1379;DHT22;683;48.738;9.226;2022-08-19T01:10:25;19.50;99.90
1379;DHT22;683;48.738;9.226;2022-08-19T01:12:57;19.50;99.90
1379;DHT22;683;48.738;9.226;2022-08-19T01:15:30;19.50;99.90
1379;DHT22;683;48.738;9.226;2022-08-19T01:18:00;19.50;99.90
1379;DHT22;683;48.738;9.226;2022-08-19T01:20:29;19.50;99.90
1379;DHT22;683;48.738;9.226;2022-08-19T01:22:59;19.50;99.90
1379;DHT22;683;48.738;9.226;2022-08-19T01:25:29;19.50;99.90
1379;DHT22;683;48.738;9.226;2022-08-19T01:27:58;19.50;99.90
1379;DHT22;683;48.738;9.226;2022-08-19T01:30:28;19.40;99.90
1379;DHT22;683;48.738;9.226;2022-08-19T01:32:57;19.50;99.90
1379;DHT22;683;48.738;9.226;2022-08-19T01:35:28;19.40;99.90
1379;DHT22;683;48.738;9.226;2022-08-19T01:38:00;19.50;99.90
1379;DHT22;683;48.738;9.226;2022-08-19T01:40:31;19.40;99.90
1379;DHT22;683;48.738;9.226;2022-08-19T01:43:00;19.50;99.90
1379;DHT22;683;48.738;9.226;2022-08-19T01:45:29;19.50;99.90
1379;DHT22;683;48.738;9.226;2022-08-19T01:47:58;19.50;99.90
1379;DHT22;683;48.738;9.226;2022-08-19T01:50:25;19.50;99.90
1379;DHT22;683;48.738;9.226;2022-08-19T01:52:53;19.40;99.90
1379;DHT22;683;48.738;9.226;2022-08-19T01:55:23;19.40;99.90
1379;DHT22;683;48.738;9.226;2022-08-19T01:57:56;19.50;99.90
1379;DHT22;683;48.738;9.226;2022-08-19T02:00:27;19.50;99.90
1379;DHT22;683;48.738;9.226;2022-08-19T02:02:55;19.40;99.90
1379;DHT22;683;48.738;9.226;2022-08-19T02:05:24;19.40;99.90
1379;DHT22;683;48.738;9.226;2022-08-19T02:07:52;19.40;99.90
1379;DHT22;683;48.738;9.226;2022-08-19T02:10:22;19.40;99.90
1379;DHT22;683;48.738;9.226;2022-08-19T02:12:51;19.40;99.90
1379;DHT22;683;48.738;9.226;2022-08-19T02:15:19;19.40;99.90
1379;DHT22;683;48.738;9.226;2022-08-19T02:17:48;19.50;99.90
1379;DHT22;683;48.738;9.226;2022-08-19T02:20:16;19.40;99.90
1379;DHT22;683;48.738;9.226;2022-08-19T02:22:44;19.40;99.90
1379;DHT22;683;48.738;9.226;2022-08-19T02:25:13;19.40;99.90
1379;DHT22;683;48.738;9.226;2022-08-19T02:27:43;19.40;99.90
1379;DHT22;683;48.738;9.226;2022-08-19T02:30:15;19.30;99.90
1379;DHT22;683;48.738;9.226;2022-08-19T02:32:43;19.30;99.90
1379;DHT22;683;48.738;9.226;2022-08-19T02:35:11;19.30;99.90
1379;DHT22;683;48.738;9.226;2022-08-19T02:37:40;19.30;99.90
1379;DHT22;683;48.738;9.226;2022-08-19T02:40:25;19.30;99.90
1379;DHT22;683;48.738;9.226;2022-08-19T02:42:54;19.30;99.90
1379;DHT22;683;48.738;9.226;2022-08-19T02:45:22;19.30;99.90
1379;DHT22;683;48.738;9.226;2022-08-19T02:47:50;19.30;99.90
1379;DHT22;683;48.738;9.226;2022-08-19T02:50:18;19.20;99.90
1379;DHT22;683;48.738;9.226;2022-08-19T02:52:45;19.20;99.90
1379;DHT22;683;48.738;9.226;2022-08-19T02:55:13;19.20;99.90
1379;DHT22;683;48.738;9.226;2022-08-19T02:57:41;19.10;99.90
1379;DHT22;683;48.738;9.226;2022-08-19T03:00:11;19.10;99.90
1379;DHT22;683;48.738;9.226;2022-08-19T03:02:40;19.00;99.90
1379;DHT22;683;48.738;9.226;2022-08-19T03:05:09;19.00;99.90
1379;DHT22;683;48.738;9.226;2022-08-19T03:07:37;18.90;99.90
1379;DHT22;683;48.738;9.226;2022-08-19T03:10:06;18.90;99.90
1379;DHT22;683;48.738;9.226;2022-08-19T03:12:35;18.90;99.90
1379;DHT22;683;48.738;9.226;2022-08-19T03:15:04;18.80;99.90
1379;DHT22;683;48.738;9.226;2022-08-19T03:17:35;18.80;99.90
1379;DHT22;683;48.738;9.226;2022-08-19T03:20:04;18.80;99.90
1379;DHT22;683;48.738;9.226;2022-08-19T03:22:41;18.70;99.90
1379;DHT22;683;48.738;9.226;2022-08-19T03:25:09;18.70;99.90
1379;DHT22;683;48.738;9.226;2022-08-19T03:27:38;18.80;99.90
1379;DHT22;683;48.738;9.226;2022-08-19T03:30:07;18.70;99.90
1379;DHT22;683;48.738;9.226;2022-08-19T03:32:37;18.70;99.90
1379;DHT22;683;48.738;9.226;2022-08-19T03:35:05;18.70;99.90
1379;DHT22;683;48.738;9.226;2022-08-19T03:37:33;18.70;99.90
1379;DHT22;683;48.738;9.226;2022-08-19T03:40:02;18.70;99.90
1379;DHT22;683;48.738;9.226;2022-08-19T03:42:30;18.70;99.90
1379;DHT22;683;48.738;9.226;2022-08-19T03:44:58;18.70;99.90
1379;DHT22;683;48.738;9.226;2022-08-19T03:47:26;18.70;99.90
1379;DHT22;683;48.738;9.226;2022-08-19T03:49:55;18.70;99.90
1379;DHT22;683;48.738;9.226;2022-08-19T03:52:23;18.60;99.90
1379;DHT22;683;48.738;9.226;2022-08-19T03:54:51;18.60;99.90
1379;DHT22;683;48.738;9.226;2022-08-19T03:57:18;18.60;99.90
1379;DHT22;683;48.738;9.226;2022-08-19T03:59:46;18.50;99.90
1379;DHT22;683;48.738;9.226;2022-08-19T04:02:14;18.50;99.90
1379;DHT22;683;48.738;9.226;2022-08-19T04:04:43;18.60;99.90
1379;DHT22;683;48.738;9.226;2022-08-19T04:07:13;18.60;99.90
1379;DHT22;683;48.738;9.226;2022-08-19T04:09:42;18.60;99.90
1379;DHT22;683;48.738;9.226;2022-08-19T04:12:10;18.50;99.90
1379;DHT22;683;48.738;9.226;2022-08-19T04:14:37;18.50;99.90
1379;DHT22;683;48.738;9.226;2022-08-19T04:17:05;18.60;99.90
1379;DHT22;683;48.738;9.226;2022-08-19T04:19:34;18.50;99.90
1379;DHT22;683;48.738;9.226;2022-08-19T04:22:03;18.50;99.90
1379;DHT22;683;48.738;9.226;2022-08-19T04:24:33;18.50;99.90
1379;DHT22;683;48.738;9.226;2022-08-19T04:27:01;18.50;99.90
1379;DHT22;683;48.738;9.226;2022-08-19T04:29:30;18.40;99.90
1379;DHT22;683;48.738;9.226;2022-08-19T04:31:58;18.40;99.90
1379;DHT22;683;48.738;9.226;2022-08-19T04:34:28;18.40;99.90
1379;DHT22;683;48.738;9.226;2022-08-19T04:36:57;18.50;99.90
1379;DHT22;683;48.738;9.226;2022-08-19T04:39:28;18.40;99.90
1379;DHT22;683;48.738;9.226;2022-08-19T04:42:11;18.40;99.90
1379;DHT22;683;48.738;9.226;2022-08-19T04:44:56;18.40;99.90
1379;DHT22;683;48.738;9.226;2022-08-19T04:47:25;18.40;99.90
1379;DHT22;683;48.738;9.226;2022-08-19T04:49:52;18.50;99.90
1379;DHT22;683;48.738;9.226;2022-08-19T04:52:20;18.50;99.90
1379;DHT22;683;48.738;9.226;2022-08-19T04:54:48;18.50;99.90
1379;DHT22;683;48.738;9.226;2022-08-19T04:57:17;18.50;99.90
1379;DHT22;683;48.738;9.226;2022-08-19T04:59:45;18.50;99.90
1379;DHT22;683;48.738;9.226;2022-08-19T05:02:12;18.50;99.90
1379;DHT22;683;48.738;9.226;2022-08-19T05:04:40;18.50;99.90
1379;DHT22;683;48.738;9.226;2022-08-19T05:07:08;18.50;99.90
1379;DHT22;683;48.738;9.226;2022-08-19T05:09:36;18.60;99.90
1379;DHT22;683;48.738;9.226;2022-08-19T05:12:04;18.50;99.90
1379;DHT22;683;48.738;9.226;2022-08-19T05:14:33;18.60;99.90
1379;DHT22;683;48.738;9.226;2022-08-19T05:17:02;18.60;99.90
1379;DHT22;683;48.738;9.226;2022-08-19T05:19:30;18.70;99.90
1379;DHT22;683;48.738;9.226;2022-08-19T05:22:15;18.70;99.90
1379;DHT22;683;48.738;9.226;2022-08-19T05:25:05;18.70;99.90
1379;DHT22;683;48.738;9.226;2022-08-19T05:27:33;18.70;99.90
1379;DHT22;683;48.738;9.226;2022-08-19T05:30:03;18.70;99.90
1379;DHT22;683;48.738;9.226;2022-08-19T05:32:31;18.70;99.90
1379;DHT22;683;48.738;9.226;2022-08-19T05:34:59;18.70;99.90
1379;DHT22;683;48.738;9.226;2022-08-19T05:37:27;18.70;99.90
1379;DHT22;683;48.738;9.226;2022-08-19T05:39:55;18.80;99.90
1379;DHT22;683;48.738;9.226;2022-08-19T05:42:23;18.80;99.90
1379;DHT22;683;48.738;9.226;2022-08-19T05:44:51;18.80;99.90
1379;DHT22;683;48.738;9.226;2022-08-19T05:47:21;18.80;99.90
1379;DHT22;683;48.738;9.226;2022-08-19T05:49:49;18.80;99.90
1379;DHT22;683;48.738;9.226;2022-08-19T05:52:17;18.80;99.90
1379;DHT22;683;48.738;9.226;2022-08-19T05:54:46;18.70;99.90
1379;DHT22;683;48.738;9.226;2022-08-19T05:57:14;18.80;99.90
1379;DHT22;683;48.738;9.226;2022-08-19T05:59:42;18.80;99.90
1379;DHT22;683;48.738;9.226;2022-08-19T06:02:17;18.80;99.90
1379;DHT22;683;48.738;9.226;2022-08-19T06:04:46;18.90;99.90
1379;DHT22;683;48.738;9.226;2022-08-19T06:07:14;18.90;99.90
1379;DHT22;683;48.738;9.226;2022-08-19T06:09:43;18.90;99.90
1379;DHT22;683;48.738;9.226;2022-08-19T06:12:11;18.90;99.90
1379;DHT22;683;48.738;9.226;2022-08-19T06:14:38;18.90;99.90
1379;DHT22;683;48.738;9.226;2022-08-19T06:17:07;18.90;99.90
1379;DHT22;683;48.738;9.226;2022-08-19T06:19:35;18.80;99.90
1379;DHT22;683;48.738;9.226;2022-08-19T06:22:05;18.80;99.90
1379;DHT22;683;48.738;9.226;2022-08-19T06:24:33;18.80;99.90
1379;DHT22;683;48.738;9.226;2022-08-19T06:27:02;18.70;99.90
1379;DHT22;683;48.738;9.226;2022-08-19T06:29:31;18.60;99.90
1379;DHT22;683;48.738;9.226;2022-08-19T06:32:01;18.50;99.90
1379;DHT22;683;48.738;9.226;2022-08-19T06:34:31;18.40;99.90
1379;DHT22;683;48.738;9.226;2022-08-19T06:37:00;18.30;99.90
1379;DHT22;683;48.738;9.226;2022-08-19T06:39:32;18.30;99.90
1379;DHT22;683;48.738;9.226;2022-08-19T06:42:02;18.20;99.90
1379;DHT22;683;48.738;9.226;2022-08-19T06:44:34;18.20;99.90
1379;DHT22;683;48.738;9.226;2022-08-19T06:47:03;18.20;99.90
1379;DHT22;683;48.738;9.226;2022-08-19T06:49:33;18.20;99.90
1379;DHT22;683;48.738;9.226;2022-08-19T06:52:02;18.30;99.90
1379;DHT22;683;48.738;9.226;2022-08-19T06:54:31;18.30;99.90
1379;DHT22;683;48.738;9.226;2022-08-19T06:57:00;18.40;99.90
1379;DHT22;683;48.738;9.226;2022-08-19T06:59:29;18.40;99.90
1379;DHT22;683;48.738;9.226;2022-08-19T07:02:00;18.40;99.90
1379;DHT22;683;48.738;9.226;2022-08-19T07:04:29;18.40;99.90
1379;DHT22;683;48.738;9.226;2022-08-19T07:07:01;18.50;99.90
1379;DHT22;683;48.738;9.226;2022-08-19T07:09:30;18.50;99.90
1379;DHT22;683;48.738;9.226;2022-08-19T07:11:58;18.70;99.90
1379;DHT22;683;48.738;9.226;2022-08-19T07:14:27;18.70;99.90
1379;DHT22;683;48.738;9.226;2022-08-19T07:16:56;18.80;99.90
1379;DHT22;683;48.738;9.226;2022-08-19T07:19:26;18.90;99.90
1379;DHT22;683;48.738;9.226;2022-08-19T07:21:55;18.80;99.90
1379;DHT22;683;48.738;9.226;2022-08-19T07:24:24;18.80;99.90
1379;DHT22;683;48.738;9.226;2022-08-19T07:26:56;18.80;99.90
1379;DHT22;683;48.738;9.226;2022-08-19T07:29:26;18.80;99.90
1379;DHT22;683;48.738;9.226;2022-08-19T07:31:55;18.70;99.90
1379;DHT22;683;48.738;9.226;2022-08-19T07:34:25;18.70;99.90
1379;DHT22;683;48.738;9.226;2022-08-19T07:36:53;18.60;99.90
1379;DHT22;683;48.738;9.226;2022-08-19T07:39:24;18.60;99.90
1379;DHT22;683;48.738;9.226;2022-08-19T07:41:53;18.60;99.90
1379;DHT22;683;48.738;9.226;2022-08-19T07:44:22;18.50;99.90
1379;DHT22;683;48.738;9.226;2022-08-19T07:46:52;18.30;99.90
1379;DHT22;683;48.738;9.226;2022-08-19T07:49:21;18.20;99.90
1379;DHT22;683;48.738;9.226;2022-08-19T07:51:51;18.10;99.90
1379;DHT22;683;48.738;9.226;2022-08-19T07:54:20;17.90;99.90
1379;DHT22;683;48.738;9.226;2022-08-19T07:56:49;17.80;99.90
1379;DHT22;683;48.738;9.226;2022-08-19T07:59:19;17.70;99.90
1379;DHT22;683;48.738;9.226;2022-08-19T08:01:48;17.70;99.90
1379;DHT22;683;48.738;9.226;2022-08-19T08:04:16;17.70;99.90
1379;DHT22;683;48.738;9.226;2022-08-19T08:07:02;17.70;99.90
1379;DHT22;683;48.738;9.226;2022-08-19T08:09:48;17.60;99.90
1379;DHT22;683;48.738;9.226;2022-08-19T08:12:18;17.60;99.90
1379;DHT22;683;48.738;9.226;2022-08-19T08:14:50;17.60;99.90
1379;DHT22;683;48.738;9.226;2022-08-19T08:17:26;17.60;99.90
1379;DHT22;683;48.738;9.226;2022-08-19T08:19:55;17.60;99.90
1379;DHT22;683;48.738;9.226;2022-08-19T08:22:24;17.60;99.90
1379;DHT22;683;48.738;9.226;2022-08-19T08:25:13;17.60;99.90
1379;DHT22;683;48.738;9.226;2022-08-19T08:27:43;17.70;99.90
1379;DHT22;683;48.738;9.226;2022-08-19T08:30:15;17.70;99.90
1379;DHT22;683;48.738;9.226;2022-08-19T08:32:43;17.80;99.90
1379;DHT22;683;48.738;9.226;2022-08-19T08:35:14;17.80;99.90
1379;DHT22;683;48.738;9.226;2022-08-19T08:37:44;17.90;99.90
1379;DHT22;683;48.738;9.226;2022-08-19T08:40:18;18.00;99.90
1379;DHT22;683;48.738;9.226;2022-08-19T08:42:51;18.00;99.90
1379;DHT22;683;48.738;9.226;2022-08-19T08:45:27;18.00;99.90
1379;DHT22;683;48.738;9.226;2022-08-19T08:47:58;18.10;99.90
1379;DHT22;683;48.738;9.226;2022-08-19T08:50:32;18.10;99.90
1379;DHT22;683;48.738;9.226;2022-08-19T08:53:03;18.20;99.90
1379;DHT22;683;48.738;9.226;2022-08-19T08:55:31;18.40;99.90
1379;DHT22;683;48.738;9.226;2022-08-19T08:58:04;18.50;99.90
1379;DHT22;683;48.738;9.226;2022-08-19T09:00:37;18.70;99.90
1379;DHT22;683;48.738;9.226;2022-08-19T09:03:12;19.00;99.90
1379;DHT22;683;48.738;9.226;2022-08-19T09:05:54;19.20;99.90
1379;DHT22;683;48.738;9.226;2022-08-19T09:08:36;19.30;99.90
1379;DHT22;683;48.738;9.226;2022-08-19T09:11:10;19.50;99.90
1379;DHT22;683;48.738;9.226;2022-08-19T09:13:48;19.70;99.90
1379;DHT22;683;48.738;9.226;2022-08-19T09:16:21;19.70;99.90
1379;DHT22;683;48.738;9.226;2022-08-19T09:19:05;19.80;99.90
1379;DHT22;683;48.738;9.226;2022-08-19T09:21:34;19.70;99.90
1379;DHT22;683;48.738;9.226;2022-08-19T09:24:03;19.70;99.90
1379;DHT22;683;48.738;9.226;2022-08-19T09:26:31;19.60;99.90
1379;DHT22;683;48.738;9.226;2022-08-19T09:29:00;19.40;99.90
1379;DHT22;683;48.738;9.226;2022-08-19T09:31:32;19.20;99.90
1379;DHT22;683;48.738;9.226;2022-08-19T09:34:00;19.00;99.90
1379;DHT22;683;48.738;9.226;2022-08-19T09:36:31;18.90;99.90
1379;DHT22;683;48.738;9.226;2022-08-19T09:39:03;18.70;99.90
1379;DHT22;683;48.738;9.226;2022-08-19T09:41:32;18.70;99.90
1379;DHT22;683;48.738;9.226;2022-08-19T09:43:59;18.70;99.90
1379;DHT22;683;48.738;9.226;2022-08-19T09:46:28;18.70;99.90
1379;DHT22;683;48.738;9.226;2022-08-19T09:49:00;18.70;99.90
1379;DHT22;683;48.738;9.226;2022-08-19T09:51:28;18.60;99.90
1379;DHT22;683;48.738;9.226;2022-08-19T09:53:59;18.70;99.90
1379;DHT22;683;48.738;9.226;2022-08-19T09:56:28;18.70;99.90
1379;DHT22;683;48.738;9.226;2022-08-19T09:58:58;18.70;99.90
1379;DHT22;683;48.738;9.226;2022-08-19T10:01:27;18.70;99.90
1379;DHT22;683;48.738;9.226;2022-08-19T10:03:57;18.70;99.90
1379;DHT22;683;48.738;9.226;2022-08-19T10:06:29;18.60;99.90
1379;DHT22;683;48.738;9.226;2022-08-19T10:08:58;18.60;99.90
1379;DHT22;683;48.738;9.226;2022-08-19T10:11:26;18.60;99.90
1379;DHT22;683;48.738;9.226;2022-08-19T10:13:55;18.60;99.90
1379;DHT22;683;48.738;9.226;2022-08-19T10:16:23;18.60;99.90
1379;DHT22;683;48.738;9.226;2022-08-19T10:18:52;18.60;99.90
1379;DHT22;683;48.738;9.226;2022-08-19T10:21:22;18.70;99.90
1379;DHT22;683;48.738;9.226;2022-08-19T10:23:53;18.70;99.90
1379;DHT22;683;48.738;9.226;2022-08-19T10:26:27;18.80;99.90
1379;DHT22;683;48.738;9.226;2022-08-19T10:28:56;18.90;99.90
1379;DHT22;683;48.738;9.226;2022-08-19T10:31:25;18.90;99.90
1379;DHT22;683;48.738;9.226;2022-08-19T10:33:53;19.00;99.90
1379;DHT22;683;48.738;9.226;2022-08-19T10:36:25;19.00;99.90
1379;DHT22;683;48.738;9.226;2022-08-19T10:38:57;19.00;99.90
1379;DHT22;683;48.738;9.226;2022-08-19T10:41:29;19.10;99.90
1379;DHT22;683;48.738;9.226;2022-08-19T10:43:59;19.20;99.90
1379;DHT22;683;48.738;9.226;2022-08-19T10:46:28;19.20;99.90
1379;DHT22;683;48.738;9.226;2022-08-19T10:48:57;19.20;99.90
1379;DHT22;683;48.738;9.226;2022-08-19T10:51:26;19.30;99.90
1379;DHT22;683;48.738;9.226;2022-08-19T10:54:12;19.40;99.90
1379;DHT22;683;48.738;9.226;2022-08-19T10:56:40;19.50;99.90
1379;DHT22;683;48.738;9.226;2022-08-19T10:59:21;19.50;99.90
1379;DHT22;683;48.738;9.226;2022-08-19T11:01:51;19.70;99.90
1379;DHT22;683;48.738;9.226;2022-08-19T11:04:19;19.70;99.90
1379;DHT22;683;48.738;9.226;2022-08-19T11:06:48;19.70;99.90
1379;DHT22;683;48.738;9.226;2022-08-19T11:09:21;19.70;99.90
1379;DHT22;683;48.738;9.226;2022-08-19T11:11:50;19.70;99.90
1379;DHT22;683;48.738;9.226;2022-08-19T11:14:20;19.60;99.90
1379;DHT22;683;48.738;9.226;2022-08-19T11:16:49;19.50;99.90
1379;DHT22;683;48.738;9.226;2022-08-19T11:19:17;19.30;99.90
1379;DHT22;683;48.738;9.226;2022-08-19T11:21:47;19.30;99.90
1379;DHT22;683;48.738;9.226;2022-08-19T11:24:19;19.20;99.90
1379;DHT22;683;48.738;9.226;2022-08-19T11:26:48;19.20;99.90
1379;DHT22;683;48.738;9.226;2022-08-19T11:29:18;19.20;99.90
1379;DHT22;683;48.738;9.226;2022-08-19T11:31:48;19.30;99.90
1379;DHT22;683;48.738;9.226;2022-08-19T11:34:18;19.40;99.90
1379;DHT22;683;48.738;9.226;2022-08-19T11:36:48;19.50;99.90
1379;DHT22;683;48.738;9.226;2022-08-19T11:39:20;19.50;99.90
1379;DHT22;683;48.738;9.226;2022-08-19T11:41:48;19.70;99.90
1379;DHT22;683;48.738;9.226;2022-08-19T11:44:16;19.90;99.90
1379;DHT22;683;48.738;9.226;2022-08-19T11:46:44;20.10;99.90
1379;DHT22;683;48.738;9.226;2022-08-19T11:49:13;20.10;99.90
1379;DHT22;683;48.738;9.226;2022-08-19T11:51:42;20.10;99.90
1379;DHT22;683;48.738;9.226;2022-08-19T11:54:11;20.00;99.90
1379;DHT22;683;48.738;9.226;2022-08-19T11:56:41;20.10;99.90
1379;DHT22;683;48.738;9.226;2022-08-19T11:59:09;20.10;99.90
1379;DHT22;683;48.738;9.226;2022-08-19T12:01:37;20.20;99.90
1379;DHT22;683;48.738;9.226;2022-08-19T12:04:08;20.20;99.90
1379;DHT22;683;48.738;9.226;2022-08-19T12:06:38;20.50;99.90
1379;DHT22;683;48.738;9.226;2022-08-19T12:09:08;20.70;99.90
1379;DHT22;683;48.738;9.226;2022-08-19T12:11:37;20.90;99.90
1379;DHT22;683;48.738;9.226;2022-08-19T12:14:09;20.90;99.90
1379;DHT22;683;48.738;9.226;2022-08-19T12:16:37;20.90;99.90
1379;DHT22;683;48.738;9.226;2022-08-19T12:19:05;20.90;99.90
1379;DHT22;683;48.738;9.226;2022-08-19T12:21:35;20.80;99.90
1379;DHT22;683;48.738;9.226;2022-08-19T12:24:04;20.60;99.90
1379;DHT22;683;48.738;9.226;2022-08-19T12:26:33;20.40;99.90
1379;DHT22;683;48.738;9.226;2022-08-19T12:29:01;20.30;99.90
1379;DHT22;683;48.738;9.226;2022-08-19T12:31:30;20.40;99.90
1379;DHT22;683;48.738;9.226;2022-08-19T12:33:58;20.30;99.90
1379;DHT22;683;48.738;9.226;2022-08-19T12:36:28;20.30;99.90
1379;DHT22;683;48.738;9.226;2022-08-19T12:38:58;20.30;99.90
1379;DHT22;683;48.738;9.226;2022-08-19T12:41:26;20.20;99.90
1379;DHT22;683;48.738;9.226;2022-08-19T12:43:55;20.10;99.90
1379;DHT22;683;48.738;9.226;2022-08-19T12:46:24;20.00;99.90
1379;DHT22;683;48.738;9.226;2022-08-19T12:48:53;20.00;99.90
1379;DHT22;683;48.738;9.226;2022-08-19T12:51:21;20.00;99.90
1379;DHT22;683;48.738;9.226;2022-08-19T12:53:49;19.90;99.90
1379;DHT22;683;48.738;9.226;2022-08-19T12:56:16;20.00;99.90
1379;DHT22;683;48.738;9.226;2022-08-19T12:58:45;20.10;99.90
1379;DHT22;683;48.738;9.226;2022-08-19T13:01:14;20.10;99.90
1379;DHT22;683;48.738;9.226;2022-08-19T13:03:45;20.30;99.90
1379;DHT22;683;48.738;9.226;2022-08-19T13:06:15;20.40;99.90
1379;DHT22;683;48.738;9.226;2022-08-19T13:08:44;20.60;99.90
1379;DHT22;683;48.738;9.226;2022-08-19T13:11:14;20.90;99.90
1379;DHT22;683;48.738;9.226;2022-08-19T13:13:43;21.00;99.90
1379;DHT22;683;48.738;9.226;2022-08-19T13:16:12;21.00;99.90
1379;DHT22;683;48.738;9.226;2022-08-19T13:18:42;21.00;99.90
1379;DHT22;683;48.738;9.226;2022-08-19T13:21:11;20.90;99.90
1379;DHT22;683;48.738;9.226;2022-08-19T13:23:40;20.80;99.90
1379;DHT22;683;48.738;9.226;2022-08-19T13:26:09;20.60;99.90
1379;DHT22;683;48.738;9.226;2022-08-19T13:28:38;20.50;99.90
1379;DHT22;683;48.738;9.226;2022-08-19T13:31:25;20.40;99.90
1379;DHT22;683;48.738;9.226;2022-08-19T13:34:10;20.30;99.90
1379;DHT22;683;48.738;9.226;2022-08-19T13:36:40;20.30;99.90
1379;DHT22;683;48.738;9.226;2022-08-19T13:39:10;20.20;99.90
1379;DHT22;683;48.738;9.226;2022-08-19T13:41:43;20.30;99.90
1379;DHT22;683;48.738;9.226;2022-08-19T13:44:14;20.30;99.90
1379;DHT22;683;48.738;9.226;2022-08-19T13:46:44;20.10;99.90
1379;DHT22;683;48.738;9.226;2022-08-19T13:49:19;20.10;99.90
1379;DHT22;683;48.738;9.226;2022-08-19T13:51:49;20.00;99.90
1379;DHT22;683;48.738;9.226;2022-08-19T13:54:18;19.90;99.90
1379;DHT22;683;48.738;9.226;2022-08-19T13:56:46;19.90;99.90
1379;DHT22;683;48.738;9.226;2022-08-19T13:59:14;19.90;99.90
1379;DHT22;683;48.738;9.226;2022-08-19T14:01:42;19.70;99.90
1379;DHT22;683;48.738;9.226;2022-08-19T14:04:10;19.60;99.90
1379;DHT22;683;48.738;9.226;2022-08-19T14:06:39;19.50;99.90
1379;DHT22;683;48.738;9.226;2022-08-19T14:09:08;19.40;99.90
1379;DHT22;683;48.738;9.226;2022-08-19T14:11:37;19.40;99.90
1379;DHT22;683;48.738;9.226;2022-08-19T14:14:05;19.40;99.90
1379;DHT22;683;48.738;9.226;2022-08-19T14:16:33;19.30;99.90
1379;DHT22;683;48.738;9.226;2022-08-19T14:19:00;19.30;99.90
1379;DHT22;683;48.738;9.226;2022-08-19T14:21:28;19.30;99.90
1379;DHT22;683;48.738;9.226;2022-08-19T14:23:56;19.40;99.90
1379;DHT22;683;48.738;9.226;2022-08-19T14:26:24;19.30;99.90
1379;DHT22;683;48.738;9.226;2022-08-19T14:28:54;19.40;99.90
1379;DHT22;683;48.738;9.226;2022-08-19T14:31:24;19.40;99.90
1379;DHT22;683;48.738;9.226;2022-08-19T14:33:52;19.50;99.90
1379;DHT22;683;48.738;9.226;2022-08-19T14:36:20;19.60;99.90
1379;DHT22;683;48.738;9.226;2022-08-19T14:38:48;19.60;99.90
1379;DHT22;683;48.738;9.226;2022-08-19T14:41:18;19.60;99.90
1379;DHT22;683;48.738;9.226;2022-08-19T14:43:48;19.70;99.90
1379;DHT22;683;48.738;9.226;2022-08-19T14:46:19;19.80;99.90
1379;DHT22;683;48.738;9.226;2022-08-19T14:48:49;20.00;99.90
1379;DHT22;683;48.738;9.226;2022-08-19T14:51:18;20.20;99.90
1379;DHT22;683;48.738;9.226;2022-08-19T14:53:45;20.30;99.90
1379;DHT22;683;48.738;9.226;2022-08-19T14:56:20;20.50;99.90
1379;DHT22;683;48.738;9.226;2022-08-19T14:58:48;20.60;99.90
1379;DHT22;683;48.738;9.226;2022-08-19T15:01:21;20.60;99.90
1379;DHT22;683;48.738;9.226;2022-08-19T15:03:50;20.50;99.90
1379;DHT22;683;48.738;9.226;2022-08-19T15:06:19;20.40;99.90
1379;DHT22;683;48.738;9.226;2022-08-19T15:08:47;20.40;99.90
1379;DHT22;683;48.738;9.226;2022-08-19T15:11:19;20.40;99.90
1379;DHT22;683;48.738;9.226;2022-08-19T15:13:47;20.40;99.90
1379;DHT22;683;48.738;9.226;2022-08-19T15:16:17;20.30;99.90
1379;DHT22;683;48.738;9.226;2022-08-19T15:18:49;20.50;99.90
1379;DHT22;683;48.738;9.226;2022-08-19T15:21:17;20.80;99.90
1379;DHT22;683;48.738;9.226;2022-08-19T15:23:45;21.00;99.90
1379;DHT22;683;48.738;9.226;2022-08-19T15:26:14;21.30;99.90
1379;DHT22;683;48.738;9.226;2022-08-19T15:28:42;21.70;99.90
1379;DHT22;683;48.738;9.226;2022-08-19T15:31:11;22.10;99.90
1379;DHT22;683;48.738;9.226;2022-08-19T15:33:40;22.40;99.90
1379;DHT22;683;48.738;9.226;2022-08-19T15:36:11;22.60;99.90
1379;DHT22;683;48.738;9.226;2022-08-19T15:38:39;22.90;99.90
1379;DHT22;683;48.738;9.226;2022-08-19T15:41:16;23.20;99.90
1379;DHT22;683;48.738;9.226;2022-08-19T15:43:53;23.70;99.90
1379;DHT22;683;48.738;9.226;2022-08-19T15:46:23;23.80;99.90
1379;DHT22;683;48.738;9.226;2022-08-19T15:48:52;23.80;99.90
1379;DHT22;683;48.738;9.226;2022-08-19T15:51:22;23.80;99.90
1379;DHT22;683;48.738;9.226;2022-08-19T15:53:50;23.50;99.90
1379;DHT22;683;48.738;9.226;2022-08-19T15:56:18;23.40;99.90
1379;DHT22;683;48.738;9.226;2022-08-19T15:58:46;23.40;99.90
1379;DHT22;683;48.738;9.226;2022-08-19T16:01:31;23.20;99.90
1379;DHT22;683;48.738;9.226;2022-08-19T16:04:16;23.20;99.90
1379;DHT22;683;48.738;9.226;2022-08-19T16:07:03;23.30;99.90
1379;DHT22;683;48.738;9.226;2022-08-19T16:09:33;23.40;99.90
1379;DHT22;683;48.738;9.226;2022-08-19T16:12:03;23.60;99.90
1379;DHT22;683;48.738;9.226;2022-08-19T16:14:34;24.00;99.90
1379;DHT22;683;48.738;9.226;2022-08-19T16:17:03;24.20;99.90
1379;DHT22;683;48.738;9.226;2022-08-19T16:19:31;24.60;99.90
1379;DHT22;683;48.738;9.226;2022-08-19T16:22:00;24.30;99.90
1379;DHT22;683;48.738;9.226;2022-08-19T16:24:29;24.20;99.90
1379;DHT22;683;48.738;9.226;2022-08-19T16:26:59;24.50;99.90
1379;DHT22;683;48.738;9.226;2022-08-19T16:29:28;24.50;99.90
1379;DHT22;683;48.738;9.226;2022-08-19T16:31:56;24.10;99.90
1379;DHT22;683;48.738;9.226;2022-08-19T16:34:23;24.00;99.90